createdAt,value
2019-06-26T00:00:02.009Z,0.98
2019-06-26T00:15:01.426Z,1.2
2019-06-26T00:30:01.891Z,0.98
2019-06-26T00:45:01.317Z,0.93
2019-06-26T01:00:01.900Z,0.99
2019-06-26T01:15:01.387Z,1.23
2019-06-26T01:30:02.008Z,1.12
2019-06-26T01:45:01.403Z,1.04
2019-06-26T02:00:01.883Z,0.97
2019-06-26T02:15:01.446Z,1.05
2019-06-26T02:30:01.955Z,0.95
2019-06-26T02:45:01.392Z,0.92
2019-06-26T03:00:01.856Z,0.95
2019-06-26T03:15:08.620Z,0.99
2019-06-26T03:30:02.172Z,0.99
2019-06-26T03:45:01.895Z,0.9
2019-06-26T04:00:01.803Z,0.99
2019-06-26T04:15:01.495Z,1.25
2019-06-26T04:30:01.803Z,1.32
2019-06-26T04:45:01.513Z,1.17
2019-06-26T05:00:02.357Z,0.98
2019-06-26T05:15:01.956Z,1
2019-06-26T05:30:01.465Z,1.1
2019-06-26T05:45:02.942Z,1.05
2019-06-26T06:00:01.352Z,0.93
2019-06-26T06:15:01.864Z,1.1
2019-06-26T06:30:01.315Z,1.1
2019-06-26T06:45:02.127Z,0.9
2019-06-26T07:00:01.541Z,1.07
2019-06-26T07:15:01.966Z,1.04
2019-06-26T07:30:01.362Z,1.06
2019-06-26T07:45:01.778Z,0.91
2019-06-26T08:00:01.139Z,0.96
2019-06-26T08:15:01.561Z,1.03
2019-06-26T08:30:02.072Z,0.87
2019-06-26T08:45:01.506Z,0.77
2019-06-26T09:00:01.988Z,0.86
2019-06-26T09:15:01.454Z,0.8
2019-06-26T09:30:02.034Z,0.83
2019-06-26T09:45:01.658Z,0.91
2019-06-26T10:00:01.595Z,0.97
2019-06-26T10:15:02.039Z,1.02
2019-06-26T10:30:01.453Z,0.84
2019-06-26T10:45:01.971Z,0.77
2019-06-26T11:00:01.430Z,0.82
2019-06-26T11:15:02.037Z,0.89
2019-06-26T11:30:01.544Z,1.05
2019-06-26T11:45:02.136Z,0.82
2019-06-26T12:00:02.051Z,0.88
2019-06-26T12:15:13.372Z,1.16
2019-06-26T12:30:01.811Z,1.11
2019-06-26T12:45:01.283Z,1.19
2019-06-26T13:00:01.696Z,0.93
2019-06-26T13:15:02.026Z,1.16
2019-06-26T13:30:01.467Z,1.11
2019-06-26T13:45:01.869Z,1.22
2019-06-26T14:00:01.535Z,1.27
2019-06-26T14:15:02.043Z,1.47
2019-06-26T14:30:01.501Z,1.45
2019-06-26T14:45:01.938Z,1.27
2019-06-26T15:00:01.321Z,1.32
2019-06-26T15:15:01.806Z,1.19
2019-06-26T15:30:01.261Z,1.18
2019-06-26T15:45:01.809Z,1.05
2019-06-26T16:00:01.222Z,1.06
2019-06-26T16:15:01.648Z,1.19
2019-06-26T16:30:02.170Z,1.1
2019-06-26T16:45:01.582Z,1.04
2019-06-26T17:00:09.204Z,1
2019-06-26T17:15:04.076Z,1.09
2019-06-26T17:30:01.706Z,1.12
2019-06-26T17:45:01.275Z,1
2019-06-26T18:00:01.656Z,0.89
2019-06-26T18:15:02.139Z,0.91
2019-06-26T18:30:01.653Z,1.3
2019-06-26T18:45:02.224Z,1.28
2019-06-26T19:00:01.593Z,1.12
2019-06-26T19:15:02.030Z,1.22
2019-06-26T19:30:01.421Z,1.33
2019-06-26T19:45:02.025Z,1.26
2019-06-26T20:00:01.549Z,1.39
2019-06-26T20:15:02.058Z,1.25
2019-06-26T20:30:01.503Z,1.37
2019-06-26T20:45:01.977Z,1.3
2019-06-26T21:00:01.867Z,1.24
2019-06-26T21:15:01.294Z,1.18
2019-06-26T21:30:01.897Z,1.35
2019-06-26T21:45:01.925Z,1.28
2019-06-26T22:00:01.660Z,1.16
2019-06-26T22:15:02.148Z,1.29
2019-06-26T22:30:01.597Z,1.29
2019-06-26T22:45:02.112Z,1.34
2019-06-26T23:00:01.598Z,1.27
2019-06-26T23:15:02.039Z,1.26
2019-06-26T23:30:01.493Z,1.4
2019-06-26T23:45:01.908Z,1.47
